Time;durP1;ratioP1;P1;durP2;ratioP2;P2;SDS_P1;SDS_P2;PMS_P1;PMS_P2;Temp;Humidity;BMP_temperature;BMP_pressure;BME280_temperature;BME280_humidity;BME280_pressure;Samples;Min_cycle;Max_cycle;Signal;HPM_P1;HPM_P2
2022/08/09 00:00:21;;;;;;;4.68;4.00;;;18.10;99.90;;;;;;10420905;28;20295;-83
2022/08/09 00:05:42;;;;;;;4.57;3.78;;;18.10;99.90;;;;;;10421538;28;20188;-83
2022/08/09 00:11:04;;;;;;;4.10;3.70;;;18.10;99.90;;;;;;10417683;28;20196;-82
2022/08/09 00:16:26;;;;;;;5.97;4.00;;;18.00;99.90;;;;;;10377350;28;20208;-82
2022/08/09 00:21:47;;;;;;;5.10;3.72;;;17.90;1.00;;;;;;10380147;28;20224;-82
2022/08/09 00:27:08;;;;;;;4.15;3.45;;;17.90;1.00;;;;;;10366152;28;20204;-84
2022/08/09 00:32:30;;;;;;;3.47;3.17;;;17.90;1.00;;;;;;10382984;28;20492;-83
2022/08/09 00:37:51;;;;;;;3.53;3.05;;;17.90;1.00;;;;;;10420432;28;20216;-82
2022/08/09 00:43:13;;;;;;;4.05;3.00;;;17.90;1.00;;;;;;10419836;28;20216;-82
2022/08/09 00:48:35;;;;;;;3.40;3.10;;;17.90;1.00;;;;;;10395817;28;20199;-82
2022/08/09 00:53:57;;;;;;;4.88;3.38;;;17.90;1.00;;;;;;10400255;28;20201;-82
2022/08/09 00:59:18;;;;;;;3.17;2.60;;;17.90;1.00;;;;;;10438831;28;20208;-82
2022/08/09 01:05:01;;;;;;;2.90;2.60;;;17.90;1.00;;;;;;10441360;28;20496;-82
2022/08/09 01:10:22;;;;;;;3.38;3.08;;;17.80;1.00;;;;;;10426097;28;20207;-82
2022/08/09 01:15:45;;;;;;;3.38;2.85;;;17.80;1.00;;;;;;10430409;28;20231;-82
2022/08/09 01:21:12;;;;;;;5.93;4.28;;;17.90;1.00;;;;;;10385519;28;20245;-82
2022/08/09 01:27:14;;;;;;;4.63;3.13;;;17.80;1.00;;;;;;10399088;28;20567;-82
2022/08/09 01:32:44;;;;;;;3.92;3.08;;;17.90;1.00;;;;;;10403198;28;20276;-86
2022/08/09 01:38:10;;;;;;;3.42;2.67;;;18.00;1.00;;;;;;10426372;28;20204;-85
2022/08/09 01:43:38;;;;;;;3.05;2.53;;;18.00;1.00;;;;;;10399425;28;20434;-85
2022/08/09 01:49:04;;;;;;;3.15;2.70;;;17.90;1.00;;;;;;10372070;28;20203;-86
2022/08/09 01:54:30;;;;;;;3.20;2.78;;;17.90;1.00;;;;;;10424678;28;20200;-85
2022/08/09 01:59:57;;;;;;;2.72;2.35;;;17.80;1.00;;;;;;10417592;28;20297;-86
2022/08/09 02:05:22;;;;;;;2.45;2.25;;;17.80;1.00;;;;;;10400998;28;20205;-86
2022/08/09 02:10:51;;;;;;;6.03;3.00;;;17.80;1.00;;;;;;10426358;28;20232;-86
2022/08/09 02:16:13;;;;;;;4.63;2.95;;;17.80;1.00;;;;;;10397898;28;20205;-86
2022/08/09 02:21:40;;;;;;;3.25;2.83;;;17.80;1.00;;;;;;10383972;28;20232;-86
2022/08/09 02:27:07;;;;;;;3.20;2.78;;;17.70;1.00;;;;;;10397815;28;20201;-84
2022/08/09 02:32:31;;;;;;;2.95;2.72;;;17.70;1.00;;;;;;10386754;28;20197;-85
2022/08/09 02:37:57;;;;;;;4.78;2.95;;;17.70;1.00;;;;;;10424428;28;20197;-86
2022/08/09 02:43:19;;;;;;;3.03;2.75;;;17.60;1.00;;;;;;10386285;28;20244;-85
2022/08/09 02:48:43;;;;;;;4.10;3.20;;;17.60;1.00;;;;;;10383379;28;20192;-86
2022/08/09 02:54:06;;;;;;;4.35;3.15;;;17.60;1.00;;;;;;10382667;28;20201;-86
2022/08/09 02:59:32;;;;;;;3.58;3.08;;;17.50;1.00;;;;;;10422195;28;20230;-85
2022/08/09 03:04:55;;;;;;;4.60;3.08;;;17.50;1.00;;;;;;10437516;28;20203;-86
2022/08/09 03:10:17;;;;;;;3.50;3.20;;;17.50;1.00;;;;;;10422262;28;20200;-85
2022/08/09 03:15:39;;;;;;;3.05;2.83;;;17.50;1.00;;;;;;10398248;28;20208;-85
2022/08/09 03:21:02;;;;;;;5.00;3.25;;;17.50;1.00;;;;;;10395927;28;20237;-86
2022/08/09 03:26:24;;;;;;;3.97;3.47;;;17.50;1.00;;;;;;10382180;28;20252;-86
2022/08/09 03:31:47;;;;;;;4.10;3.30;;;17.50;1.00;;;;;;10395911;28;20200;-85
2022/08/09 03:37:09;;;;;;;3.90;3.42;;;17.40;1.00;;;;;;10409422;28;20197;-86
2022/08/09 03:42:31;;;;;;;6.15;3.45;;;17.40;1.00;;;;;;10433588;28;20220;-85
2022/08/09 03:47:52;;;;;;;6.15;3.80;;;17.40;1.00;;;;;;10421918;28;20197;-86
2022/08/09 03:53:14;;;;;;;3.97;3.40;;;17.40;1.00;;;;;;10422557;28;20199;-85
2022/08/09 03:58:35;;;;;;;4.47;3.63;;;17.40;1.00;;;;;;10408096;28;20197;-86
2022/08/09 04:03:59;;;;;;;4.72;3.75;;;17.50;1.00;;;;;;10421545;28;20326;-83
2022/08/09 04:09:21;;;;;;;5.10;3.97;;;17.50;1.00;;;;;;10435833;28;20189;-86
2022/08/09 04:14:43;;;;;;;4.28;3.70;;;17.60;1.00;;;;;;10416175;28;20201;-85
2022/08/09 04:20:05;;;;;;;5.18;3.80;;;17.60;1.00;;;;;;10436121;28;20301;-86
2022/08/09 04:25:27;;;;;;;5.05;3.53;;;17.60;1.00;;;;;;10441271;28;20215;-85
2022/08/09 04:30:49;;;;;;;4.20;3.47;;;17.70;1.00;;;;;;10444744;28;20188;-86
2022/08/09 04:36:10;;;;;;;3.67;3.30;;;17.90;1.00;;;;;;10419454;28;20197;-86
2022/08/09 04:41:31;;;;;;;4.82;3.90;;;17.90;1.00;;;;;;10435714;28;20519;-84
2022/08/09 04:46:54;;;;;;;4.82;3.20;;;18.10;1.00;;;;;;10443609;28;20212;-85
2022/08/09 04:52:15;;;;;;;4.70;3.50;;;18.20;1.00;;;;;;10442667;28;20196;-86
2022/08/09 04:57:36;;;;;;;4.53;3.10;;;18.20;1.00;;;;;;10428216;28;20200;-85
2022/08/09 05:02:58;;;;;;;3.20;2.90;;;18.30;1.00;;;;;;10427687;28;20231;-86
2022/08/09 05:08:19;;;;;;;3.08;2.78;;;18.40;1.00;;;;;;10427402;28;20250;-85
2022/08/09 05:13:41;;;;;;;4.72;3.25;;;18.60;1.00;;;;;;10406788;28;20196;-85
2022/08/09 05:19:03;;;;;;;5.85;4.40;;;18.70;1.00;;;;;;10399913;28;20523;-84
2022/08/09 05:24:24;;;;;;;6.68;4.10;;;18.90;1.00;;;;;;10399930;28;20268;-85
2022/08/09 05:29:47;;;;;;;6.32;3.63;;;19.00;1.00;;;;;;10413864;28;20204;-86
2022/08/09 05:35:09;;;;;;;11.20;5.40;;;19.20;1.00;;;;;;10423594;28;20207;-86
2022/08/09 05:40:30;;;;;;;4.75;3.40;;;19.30;99.90;;;;;;10426178;28;20303;-84
2022/08/09 05:45:51;;;;;;;4.35;3.05;;;19.40;99.90;;;;;;10412642;28;20207;-85
2022/08/09 05:51:13;;;;;;;3.88;3.10;;;19.60;99.90;;;;;;10426192;28;20196;-86
2022/08/09 05:56:34;;;;;;;4.85;3.30;;;19.80;99.90;;;;;;10425879;28;20391;-86
2022/08/09 06:01:55;;;;;;;7.75;2.63;;;19.90;6.80;;;;;;10439502;28;20212;-85
2022/08/09 06:07:17;;;;;;;7.13;3.65;;;19.80;1.00;;;;;;10411411;28;20238;-85
2022/08/09 06:12:38;;;;;;;7.65;3.92;;;19.70;1.00;;;;;;10418045;28;20223;-86
2022/08/09 06:18:00;;;;;;;6.20;3.72;;;19.80;1.00;;;;;;10397603;28;20260;-86
2022/08/09 06:23:22;;;;;;;3.60;2.38;;;19.70;1.00;;;;;;10370117;28;20236;-86
2022/08/09 06:28:43;;;;;;;3.55;2.60;;;19.70;1.00;;;;;;10369805;28;20508;-85
2022/08/09 06:34:05;;;;;;;2.85;2.60;;;19.70;1.00;;;;;;10399814;28;20270;-85
2022/08/09 06:39:28;;;;;;;2.70;2.50;;;19.70;1.00;;;;;;10424429;28;20496;-86
2022/08/09 06:44:50;;;;;;;3.40;2.65;;;19.70;1.00;;;;;;10437673;28;20195;-85
2022/08/09 06:50:12;;;;;;;4.38;3.15;;;19.80;1.00;;;;;;10423632;28;20224;-85
2022/08/09 06:55:35;;;;;;;4.43;3.03;;;20.00;1.00;;;;;;10409777;28;20197;-85
2022/08/09 07:00:56;;;;;;;2.70;2.47;;;20.10;1.00;;;;;;10453483;28;20231;-86
2022/08/09 07:06:18;;;;;;;10.98;4.40;;;20.30;1.00;;;;;;10423256;28;20219;-86
2022/08/09 07:11:40;;;;;;;12.05;4.85;;;20.30;1.00;;;;;;10422354;28;20208;-84
2022/08/09 07:17:02;;;;;;;9.55;4.07;;;20.40;1.00;;;;;;10376028;28;20231;-84
2022/08/09 07:22:23;;;;;;;12.68;5.25;;;20.50;1.00;;;;;;10377186;28;20473;-89
2022/08/09 07:27:46;;;;;;;6.05;3.28;;;20.80;99.90;;;;;;10377068;28;20235;-86
2022/08/09 07:33:07;;;;;;;4.43;3.15;;;21.10;99.90;;;;;;10384840;28;20247;-85
2022/08/09 07:38:29;;;;;;;6.57;5.07;;;21.40;1.00;;;;;;10415835;28;20196;-81
2022/08/09 07:43:50;;;;;;;3.35;2.88;;;21.70;1.00;;;;;;10402865;28;20475;-86
2022/08/09 07:49:12;;;;;;;5.35;2.88;;;22.10;99.90;;;;;;10432217;28;20258;-86
2022/08/09 07:54:33;;;;;;;4.15;2.30;;;22.90;99.90;;;;;;10417238;28;20250;-86
2022/08/09 07:59:55;;;;;;;3.60;2.45;;;24.20;1.00;;;;;;10381995;28;20428;-87
2022/08/09 08:05:17;;;;;;;4.43;2.60;;;25.60;1.00;;;;;;10399731;28;20223;-84
2022/08/09 08:10:39;;;;;;;2.90;2.25;;;25.60;1.00;;;;;;10436363;28;20207;-84
2022/08/09 08:16:01;;;;;;;3.67;2.50;;;25.60;1.00;;;;;;10453993;28;20207;-84
2022/08/09 08:21:23;;;;;;;3.08;2.50;;;24.70;1.00;;;;;;10411189;28;20305;-86
2022/08/09 08:26:44;;;;;;;4.50;2.70;;;23.90;1.00;;;;;;10407800;28;20202;-83
2022/08/09 08:32:06;;;;;;;3.63;2.60;;;23.30;1.00;;;;;;10411367;28;20400;-83
2022/08/09 08:37:28;;;;;;;3.05;2.17;;;23.70;1.00;;;;;;10423657;28;20212;-85
2022/08/09 08:42:49;;;;;;;5.57;1.88;;;25.60;1.00;;;;;;10413432;28;20530;-83
2022/08/09 08:48:11;;;;;;;3.75;1.83;;;27.10;99.90;;;;;;10419099;28;20196;-86
2022/08/09 08:53:33;;;;;;;3.38;2.00;;;28.00;99.90;;;;;;10427786;28;20275;-82
2022/08/09 08:58:55;;;;;;;4.88;2.35;;;28.70;99.90;;;;;;10426927;28;20197;-84
2022/08/09 09:04:18;;;;;;;9.73;2.00;;;29.10;1.00;;;;;;10426621;28;20224;-86
2022/08/09 09:09:44;;;;;;;3.30;2.05;;;;;;;;;;10440343;28;20493;-86
2022/08/09 09:15:05;;;;;;;4.60;2.33;;;29.90;1.00;;;;;;10411707;28;20200;-84
2022/08/09 09:20:35;;;;;;;2.72;2.03;;;;;;;;;;10419956;28;20323;-84
2022/08/09 09:25:56;;;;;;;3.60;2.08;;;30.30;1.00;;;;;;10438274;28;20495;-80
2022/08/09 09:31:21;;;;;;;2.35;1.70;;;30.90;1.00;;;;;;10424728;28;20224;-86
2022/08/09 09:36:42;;;;;;;2.35;2.10;;;31.50;1.00;;;;;;10410770;28;20422;-87
2022/08/09 09:42:04;;;;;;;4.50;2.45;;;30.90;1.00;;;;;;10424481;28;20573;-85
2022/08/09 09:47:29;;;;;;;2.30;1.80;;;30.50;1.00;;;;;;10410152;28;20197;-86
2022/08/09 09:52:51;;;;;;;5.88;3.33;;;29.50;1.00;;;;;;10424702;28;20223;-83
2022/08/09 09:58:14;;;;;;;2.47;2.00;;;30.30;1.00;;;;;;10425532;28;20286;-85
2022/08/09 10:03:55;;;;;;;2.05;1.85;;;30.90;1.00;;;;;;10412911;28;20228;-82
2022/08/09 10:09:18;;;;;;;3.28;1.80;;;30.70;1.00;;;;;;10457271;28;20208;-85
2022/08/09 10:14:40;;;;;;;6.05;2.35;;;31.40;1.00;;;;;;10401251;28;20255;-84
2022/08/09 10:20:06;;;;;;;5.03;2.35;;;31.60;1.00;;;;;;10395300;28;20295;-82
2022/08/09 10:25:29;;;;;;;2.35;1.80;;;32.20;1.00;;;;;;10395866;28;20205;-86
2022/08/09 10:30:50;;;;;;;4.07;2.60;;;;;;;;;;10381336;28;20212;-83
2022/08/09 10:36:32;;;;;;;4.53;1.60;;;32.90;1.00;;;;;;10383006;28;20430;-85
2022/08/09 10:41:54;;;;;;;2.22;1.77;;;32.90;1.00;;;;;;10420783;28;20235;-84
2022/08/09 10:47:52;;;;;;;2.20;1.55;;;31.30;1.00;;;;;;10406912;28;20247;-85
2022/08/09 10:53:50;;;;;;;3.63;2.15;;;29.80;1.00;;;;;;10405064;28;20517;-85
2022/08/09 10:59:23;;;;;;;3.58;2.45;;;28.60;1.00;;;;;;10413432;28;20200;-85
2022/08/09 11:05:14;;;;;;;2.35;1.80;;;27.80;1.00;;;;;;10399663;28;20232;-84
2022/08/09 11:10:52;;;;;;;1.73;1.50;;;27.10;1.00;;;;;;10410952;28;20250;-83
2022/08/09 11:16:34;;;;;;;3.22;1.90;;;26.70;1.00;;;;;;10431515;28;20507;-86
2022/08/09 11:22:00;;;;;;;2.92;2.00;;;26.50;1.00;;;;;;10450674;28;20234;-85
2022/08/09 11:27:42;;;;;;;3.47;2.28;;;26.60;1.00;;;;;;10413661;28;20288;-85
2022/08/09 11:33:15;;;;;;;2.63;2.38;;;26.60;1.00;;;;;;10424287;28;20575;-80
2022/08/09 11:38:36;;;;;;;3.80;1.80;;;26.50;1.00;;;;;;10415221;28;20197;-79
2022/08/09 11:43:58;;;;;;;3.28;1.90;;;26.70;1.00;;;;;;10405966;28;20247;-80
2022/08/09 11:49:58;;;;;;;4.13;2.20;;;27.30;1.00;;;;;;10401974;28;20362;-83
2022/08/09 11:55:30;;;;;;;3.05;1.90;;;27.70;1.00;;;;;;10416646;28;20308;-78
2022/08/09 12:00:54;;;;;;;2.10;1.70;;;28.10;1.00;;;;;;10444459;28;20296;-77
2022/08/09 12:06:20;;;;;;;2.10;1.30;;;27.50;1.00;;;;;;10398596;28;20196;-78
2022/08/09 12:11:42;;;;;;;4.35;2.28;;;27.20;1.00;;;;;;10424645;28;20209;-76
2022/08/09 12:17:06;;;;;;;4.03;1.88;;;27.00;1.00;;;;;;10418703;28;20243;-83
2022/08/09 12:22:27;;;;;;;1.98;1.50;;;26.60;1.00;;;;;;10428627;28;20487;-80
2022/08/09 12:28:17;;;;;;;3.88;1.80;;;26.40;1.00;;;;;;10429124;28;20209;-78
2022/08/09 12:33:40;;;;;;;4.10;1.77;;;26.30;1.00;;;;;;10374297;28;20225;-79
2022/08/09 12:39:12;;;;;;;9.38;2.22;;;26.30;1.00;;;;;;10375110;28;20292;-87
2022/08/09 12:44:38;;;;;;;6.20;2.47;;;26.50;1.00;;;;;;10393039;28;20237;-83
2022/08/09 12:50:19;;;;;;;2.58;1.42;;;27.30;1.00;;;;;;10388847;28;20216;-83
2022/08/09 12:55:40;;;;;;;2.58;1.88;;;28.20;1.00;;;;;;10421623;28;20250;-83
2022/08/09 13:01:03;;;;;;;2.47;1.70;;;28.80;1.00;;;;;;10422888;28;20274;-88
2022/08/09 13:06:27;;;;;;;4.18;2.53;;;29.00;1.00;;;;;;10407010;28;20566;-82
2022/08/09 13:11:51;;;;;;;3.45;2.63;;;28.50;1.00;;;;;;10429680;28;20232;-83
2022/08/09 13:17:15;;;;;;;2.72;2.45;;;27.90;1.00;;;;;;10402917;28;20235;-81
2022/08/09 13:22:48;;;;;;;9.30;2.72;;;27.10;1.00;;;;;;10392808;28;20231;-82
2022/08/09 13:28:16;;;;;;;4.20;2.90;;;26.40;1.00;;;;;;10429882;28;20626;-82
2022/08/09 13:33:37;;;;;;;5.88;3.13;;;26.00;1.00;;;;;;10420453;28;20207;-83
2022/08/09 13:38:58;;;;;;;3.97;2.10;;;25.90;1.00;;;;;;10422570;28;20280;-89
2022/08/09 13:44:22;;;;;;;4.05;2.50;;;25.80;1.00;;;;;;10421423;28;20228;-83
2022/08/09 13:49:45;;;;;;;3.63;2.50;;;26.60;1.00;;;;;;10407548;28;20279;-88
2022/08/09 13:55:08;;;;;;;4.07;1.77;;;26.90;1.00;;;;;;10440211;28;20261;-83
2022/08/09 14:00:29;;;;;;;2.88;2.00;;;27.00;1.00;;;;;;10489547;28;20207;-81
2022/08/09 14:05:51;;;;;;;5.32;1.73;;;26.90;1.00;;;;;;10434699;28;20207;-84
2022/08/09 14:11:13;;;;;;;2.95;2.00;;;26.80;1.00;;;;;;10432773;28;20438;-87
2022/08/09 14:16:34;;;;;;;2.83;2.05;;;27.10;1.00;;;;;;10407407;28;20232;-83
2022/08/09 14:21:55;;;;;;;2.15;1.70;;;27.00;1.00;;;;;;10419129;28;20232;-80
2022/08/09 14:27:17;;;;;;;2.55;1.60;;;26.80;1.00;;;;;;10432504;28;20399;-80
2022/08/09 14:32:38;;;;;;;4.95;1.85;;;26.80;1.00;;;;;;10460342;28;20411;-83
2022/08/09 14:37:59;;;;;;;4.10;2.08;;;26.60;1.00;;;;;;10433309;28;20196;-83
2022/08/09 14:43:22;;;;;;;5.65;2.03;;;26.20;1.00;;;;;;10432446;28;20251;-80
2022/08/09 14:48:43;;;;;;;4.53;2.65;;;25.80;1.00;;;;;;10445048;28;20225;-79
2022/08/09 14:54:05;;;;;;;3.67;2.17;;;25.30;1.00;;;;;;10461088;28;20196;-80
2022/08/09 14:59:26;;;;;;;4.72;1.75;;;25.20;1.00;;;;;;10456650;28;20188;-80
2022/08/09 15:04:48;;;;;;;4.13;1.90;;;;;;;;;;10430466;28;20517;-80
2022/08/09 15:10:10;;;;;;;2.55;1.73;;;25.00;1.00;;;;;;10432883;28;20201;-80
2022/08/09 15:15:31;;;;;;;2.33;1.85;;;25.00;1.00;;;;;;10402349;28;20266;-80
2022/08/09 15:20:52;;;;;;;5.05;2.45;;;25.00;1.00;;;;;;10421041;28;20244;-80
2022/08/09 15:26:14;;;;;;;3.20;1.77;;;25.10;1.00;;;;;;10421221;28;20193;-80
2022/08/09 15:31:35;;;;;;;6.30;1.90;;;25.10;1.00;;;;;;10392705;28;20200;-80
2022/08/09 15:36:56;;;;;;;3.42;2.30;;;24.90;1.00;;;;;;10377335;28;20193;-79
2022/08/09 15:42:18;;;;;;;3.15;1.85;;;24.80;1.00;;;;;;10403295;28;20235;-80
2022/08/09 15:47:41;;;;;;;3.13;1.83;;;24.60;1.00;;;;;;10420974;28;20275;-80
2022/08/09 15:53:02;;;;;;;4.90;1.80;;;24.30;1.00;;;;;;10451422;28;20203;-80
2022/08/09 15:58:24;;;;;;;2.40;1.52;;;24.10;1.00;;;;;;10494119;28;20218;-80
2022/08/09 16:03:45;;;;;;;2.97;1.90;;;24.00;12.20;;;;;;10458474;28;20222;-80
2022/08/09 16:09:06;;;;;;;2.78;2.00;;;23.90;38.50;;;;;;10417905;28;20498;-80
2022/08/09 16:14:28;;;;;;;3.50;2.13;;;23.80;50.00;;;;;;10410056;28;20208;-80
2022/08/09 16:19:49;;;;;;;3.15;2.13;;;23.70;76.40;;;;;;10405754;28;20492;-80
2022/08/09 16:25:11;;;;;;;3.72;2.15;;;23.60;99.90;;;;;;10429137;28;20543;-80
2022/08/09 16:30:33;;;;;;;3.20;1.88;;;23.50;99.90;;;;;;10459169;28;20491;-81
2022/08/09 16:35:54;;;;;;;6.97;3.25;;;23.60;99.90;;;;;;10442585;28;20196;-80
2022/08/09 16:41:18;;;;;;;4.68;2.88;;;23.50;99.90;;;;;;10458013;28;20232;-81
2022/08/09 16:46:41;;;;;;;3.75;2.45;;;23.40;99.90;;;;;;10413694;28;20227;-81
2022/08/09 16:52:03;;;;;;;3.58;2.17;;;23.20;99.90;;;;;;10413682;28;20192;-81
2022/08/09 16:57:24;;;;;;;3.40;1.80;;;23.10;99.90;;;;;;10468909;28;20199;-79
2022/08/09 17:02:46;;;;;;;4.47;2.33;;;23.00;99.90;;;;;;10446347;28;20238;-81
2022/08/09 17:08:07;;;;;;;5.05;3.00;;;23.00;99.90;;;;;;10441451;28;20502;-81
2022/08/09 17:13:28;;;;;;;4.68;2.20;;;22.90;99.90;;;;;;10440543;28;20223;-81
2022/08/09 17:18:50;;;;;;;3.13;2.25;;;22.80;99.90;;;;;;10400513;28;20278;-80
2022/08/09 17:24:11;;;;;;;3.35;2.03;;;22.70;99.90;;;;;;10440899;28;20235;-80
2022/08/09 17:29:33;;;;;;;2.85;2.28;;;22.70;99.90;;;;;;10455514;28;20189;-81
2022/08/09 17:34:54;;;;;;;3.22;2.38;;;22.60;99.90;;;;;;10456014;28;20429;-81
2022/08/09 17:40:16;;;;;;;4.93;2.00;;;22.50;1.00;;;;;;10425178;28;20207;-80
2022/08/09 17:45:38;;;;;;;4.03;2.35;;;;;;;;;;10440350;28;20534;-81
2022/08/09 17:51:00;;;;;;;4.93;2.58;;;22.30;1.00;;;;;;10425122;28;20200;-81
2022/08/09 17:56:24;;;;;;;3.70;2.33;;;22.20;99.90;;;;;;10469281;28;20195;-80
2022/08/09 18:01:45;;;;;;;6.25;2.83;;;21.90;1.00;;;;;;10472016;28;20250;-81
2022/08/09 18:07:06;;;;;;;4.00;2.67;;;21.80;6.50;;;;;;10411084;28;20215;-81
2022/08/09 18:12:28;;;;;;;3.70;2.55;;;21.60;99.90;;;;;;10397001;28;20208;-80
2022/08/09 18:17:49;;;;;;;4.85;2.53;;;21.50;1.00;;;;;;10420940;28;20307;-80
2022/08/09 18:23:10;;;;;;;3.85;2.50;;;21.40;1.00;;;;;;10396405;28;20236;-81
2022/08/09 18:28:32;;;;;;;4.20;2.95;;;21.30;99.90;;;;;;10398242;28;20193;-81
2022/08/09 18:33:53;;;;;;;3.45;2.38;;;21.20;1.00;;;;;;10435796;28;20203;-81
2022/08/09 18:39:15;;;;;;;3.38;2.67;;;21.00;58.10;;;;;;10422617;28;20200;-80
2022/08/09 18:44:36;;;;;;;5.25;3.50;;;21.00;1.00;;;;;;10400838;28;20245;-80
2022/08/09 18:49:59;;;;;;;4.30;3.00;;;20.90;99.90;;;;;;10389025;28;20490;-80
2022/08/09 18:55:20;;;;;;;5.25;3.28;;;20.80;1.00;;;;;;10442504;28;20219;-80
2022/08/09 19:00:41;;;;;;;4.95;2.95;;;20.70;99.90;;;;;;10437045;28;20204;-81
2022/08/09 19:06:03;;;;;;;5.57;3.00;;;20.60;1.00;;;;;;10453015;28;20250;-81
2022/08/09 19:11:25;;;;;;;3.95;2.95;;;20.40;1.00;;;;;;10419385;28;20220;-80
2022/08/09 19:16:47;;;;;;;5.20;2.65;;;20.40;1.00;;;;;;10420911;28;20204;-80
2022/08/09 19:22:10;;;;;;;3.95;2.95;;;20.20;1.00;;;;;;10435348;28;20224;-81
2022/08/09 19:27:33;;;;;;;6.28;4.55;;;20.00;99.90;;;;;;10436203;28;20189;-80
2022/08/09 19:32:55;;;;;;;7.93;5.95;;;19.90;1.00;;;;;;10407180;28;20197;-80
2022/08/09 19:38:16;;;;;;;7.55;6.32;;;19.80;99.90;;;;;;10379445;28;20194;-80
2022/08/09 19:43:38;;;;;;;6.53;5.00;;;19.70;99.90;;;;;;10422125;28;20512;-80
2022/08/09 19:48:59;;;;;;;4.93;4.18;;;19.70;99.90;;;;;;10394182;28;20244;-80
2022/08/09 19:54:24;;;;;;;7.00;4.03;;;19.50;1.00;;;;;;10415326;28;20271;-79
2022/08/09 19:59:46;;;;;;;7.28;4.50;;;19.50;1.00;;;;;;10412412;28;20276;-80
2022/08/09 20:05:08;;;;;;;4.35;3.78;;;19.40;1.00;;;;;;10423313;28;20222;-79
2022/08/09 20:10:31;;;;;;;6.80;4.43;;;19.30;1.00;;;;;;10419335;28;20205;-80
2022/08/09 20:15:52;;;;;;;5.95;3.83;;;19.20;1.00;;;;;;10447896;28;20479;-81
2022/08/09 20:21:13;;;;;;;5.25;3.80;;;19.10;1.00;;;;;;10450529;28;20438;-80
2022/08/09 20:26:35;;;;;;;6.97;5.28;;;;;;;;;;10409817;28;20197;-80
2022/08/09 20:31:56;;;;;;;7.47;5.28;;;19.00;99.90;;;;;;10396442;28;20209;-80
2022/08/09 20:37:18;;;;;;;5.63;4.82;;;18.90;99.90;;;;;;10419703;28;20197;-80
2022/08/09 20:42:40;;;;;;;5.28;3.92;;;;;;;;;;10405775;28;20216;-80
2022/08/09 20:48:02;;;;;;;4.82;4.32;;;18.70;99.90;;;;;;10412407;28;20197;-80
2022/08/09 20:53:23;;;;;;;9.07;5.00;;;18.70;99.90;;;;;;10405252;28;20422;-79
2022/08/09 20:58:44;;;;;;;6.32;4.28;;;18.60;99.90;;;;;;10452880;28;20196;-78
2022/08/09 21:04:06;;;;;;;6.25;4.47;;;18.60;99.90;;;;;;10442357;28;20224;-80
2022/08/09 21:09:28;;;;;;;4.40;3.95;;;18.50;99.90;;;;;;10424282;28;20204;-80
2022/08/09 21:14:50;;;;;;;6.65;4.40;;;18.50;1.00;;;;;;10425246;28;20200;-79
2022/08/09 21:20:13;;;;;;;8.45;5.00;;;18.50;1.00;;;;;;10456032;28;20308;-79
2022/08/09 21:31:13;;;;;;;8.30;5.00;;;18.40;99.90;;;;;;10439503;28;20199;-79
2022/08/09 21:36:36;;;;;;;7.45;5.47;;;;;;;;;;10425358;28;20241;-80
2022/08/09 21:41:57;;;;;;;11.85;6.00;;;18.20;1.00;;;;;;10470065;28;20224;-78
2022/08/09 21:47:18;;;;;;;8.43;5.95;;;18.10;1.00;;;;;;10425621;28;20203;-79
2022/08/09 21:52:43;;;;;;;9.25;6.57;;;18.10;1.00;;;;;;10439299;28;20189;-79
2022/08/09 21:58:04;;;;;;;9.80;6.68;;;;;;;;;;10433643;28;20275;-79
2022/08/09 22:03:27;;;;;;;8.95;6.40;;;;;;;;;;10441706;28;20234;-79
2022/08/09 22:08:49;;;;;;;7.68;6.25;;;;;;;;;;10435829;28;20547;-80
2022/08/09 22:14:11;;;;;;;11.70;6.63;;;;;;;;;;10450948;28;20251;-80
2022/08/09 22:19:32;;;;;;;12.90;8.10;;;17.70;1.00;;;;;;10433983;28;20250;-81
2022/08/09 22:24:53;;;;;;;16.25;9.38;;;17.50;1.00;;;;;;10495774;28;20223;-81
2022/08/09 22:30:15;;;;;;;16.30;9.43;;;17.60;1.00;;;;;;10464869;28;20210;-81
2022/08/09 22:35:36;;;;;;;14.45;7.57;;;17.50;1.00;;;;;;10464715;28;20481;-80
2022/08/09 22:40:58;;;;;;;12.80;7.20;;;17.50;1.00;;;;;;10464793;28;20202;-80
2022/08/09 22:46:19;;;;;;;10.60;6.40;;;17.50;1.00;;;;;;10478523;28;20222;-81
2022/08/09 22:51:41;;;;;;;11.80;6.15;;;17.40;1.00;;;;;;10464260;28;20192;-80
2022/08/09 22:57:02;;;;;;;9.32;6.38;;;17.30;1.00;;;;;;10463281;28;20465;-80
2022/08/09 23:02:24;;;;;;;9.38;5.88;;;17.10;1.00;;;;;;10480570;28;20230;-80
2022/08/09 23:13:25;;;;;;;8.52;6.13;;;17.10;1.00;;;;;;10474598;28;20234;-80
2022/08/09 23:18:46;;;;;;;5.22;4.70;;;17.10;1.00;;;;;;10476431;28;20569;-80
2022/08/09 23:24:08;;;;;;;6.93;5.57;;;17.00;1.00;;;;;;10477036;28;20246;-80
2022/08/09 23:29:29;;;;;;;9.68;6.57;;;16.90;1.00;;;;;;10437529;28;20271;-80
2022/08/09 23:34:50;;;;;;;7.65;6.10;;;16.80;1.00;;;;;;10422668;28;20361;-80
2022/08/09 23:40:12;;;;;;;6.97;6.28;;;16.80;1.00;;;;;;10477513;28;20240;-80
2022/08/09 23:45:33;;;;;;;7.53;5.80;;;16.60;1.00;;;;;;10462412;28;20238;-80
2022/08/09 23:50:55;;;;;;;8.32;5.72;;;16.50;1.00;;;;;;10462454;28;20533;-80
2022/08/09 23:56:16;;;;;;;8.27;5.68;;;16.40;1.00;;;;;;10492217;28;20194;-80
